Date,TemperatureHighF,TemperatureAvgF,TemperatureLowF,DewpointHighF,DewpointAvgF,DewpointLowF,HumidityHigh,HumidityAvg,HumidityLow,PressureMaxIn,PressureMinIn,WindSpeedMaxMPH,WindSpeedAvgMPH,GustSpeedMaxMPH,PrecipitationSumIn
2012-12-1,71.4,57.1,48.9,60.2,52.5,47.4,97,86,56,30.39,30.30,2,0,3,0.00
2012-12-2,73.0,59.5,51.3,63.5,55.9,49.6,97,89,66,30.41,30.30,3,0,3,0.95
2012-12-3,73.2,61.3,52.7,64.6,57.3,51.1,97,88,68,30.39,30.30,4,0,4,0.00
2012-12-4,59.9,55.7,54.3,59.0,54.6,52.9,97,96,95,30.36,30.27,0,0,0,0.00
2012-12-5,73.9,61.5,52.0,65.1,57.7,50.9,97,88,59,30.27,30.12,2,0,2,0.00
2012-12-6,75.4,61.6,52.2,62.0,56.3,51.1,97,84,47,30.15,30.06,3,0,3,0.00
2012-12-7,68.9,62.4,57.9,63.2,59.5,56.5,96,90,79,30.15,30.03,4,0,4,0.00
2012-12-8,73.6,64.3,57.2,66.8,61.2,55.8,95,90,75,30.12,30.03,4,0,4,0.04
2012-12-9,74.1,65.7,57.0,68.2,62.5,55.8,97,90,72,30.21,30.06,3,0,3,0.00
2012-12-10,78.1,68.9,59.2,69.3,65.2,56.0,96,88,74,30.09,29.88,7,0,11,0.00
2012-12-11,59.2,49.6,43.7,56.1,43.6,36.6,92,80,68,30.24,30.00,7,2,7,0.17
2012-12-12,51.3,44.7,37.6,43.7,40.6,34.6,94,86,68,30.36,30.06,6,0,6,30.69
2012-12-13,57.4,44.8,36.9,45.2,39.7,34.2,95,83,58,30.39,30.30,7,0,57,0.00
2012-12-14,51.6,45.7,38.7,46.7,43.2,36.8,96,91,81,30.44,30.24,4,0,4,0.00
2012-12-15,67.5,56.8,45.7,58.6,53.2,44.3,96,88,70,30.30,30.12,3,0,3,0.00
2012-12-16,72.0,64.5,58.8,67.5,62.6,57.9,97,94,85,30.15,29.97,10,0,10,0.21
2012-12-17,71.2,62.0,56.5,69.7,60.8,55.5,98,96,80,30.03,29.82,13,0,13,0.66
2012-12-18,65.7,54.8,43.3,56.1,48.4,39.7,98,82,40,30.15,29.97,4,0,5,0.00
2012-12-19,68.4,54.0,39.4,58.2,49.9,37.5,96,87,61,30.21,30.06,3,0,4,0.00
2012-12-20,72.0,61.5,46.6,69.1,52.2,25.3,97,76,36,30.27,29.88,11,1,11,0.91
2012-12-21,54.3,43.7,34.9,25.7,13.8,-10.4,51,34,7,30.41,30.24,13,2,14,0.00
2012-12-22,58.3,40.9,26.8,24.5,17.0,-9.4,68,44,6,30.50,30.33,7,1,7,0.00
2012-12-23,56.1,45.1,33.1,42.3,34.3,23.9,85,67,50,30.39,30.18,172,0,172,0.00
2012-12-24,65.7,59.5,46.6,64.5,57.9,42.3,98,94,85,30.18,30.00,2,0,2,0.92
2012-12-25,70.3,65.2,57.4,69.0,64.0,54.2,98,96,83,30.03,29.74,10,0,10,0.29
2012-12-26,57.2,47.2,35.4,54.9,35.7,27.8,95,65,48,30.24,29.76,15,2,15,0.00
2012-12-27,50.9,40.1,34.3,37.3,32.1,27.6,87,74,51,30.27,30.18,6,1,6,0.00
2012-12-28,66.7,49.6,34.9,65.7,44.8,31.7,97,84,71,30.21,29.85,8,0,8,0.83
2012-12-29,63.1,47.4,35.2,62.3,37.9,26.6,98,71,51,30.41,29.88,12,2,15,0.50
2012-12-30,51.8,39.5,28.8,27.7,24.7,0.0,77,57,38,30.56,30.41,7,1,8,0.00